createdAt,value
2018-08-31T00:02:15.519Z,2.07
2018-08-31T00:15:50.622Z,2.40
2018-08-31T00:18:29.606Z,2.10
2018-08-31T00:21:22.130Z,2.90
2018-08-31T00:24:15.412Z,2.40
2018-08-31T00:26:59.385Z,3.20
2018-08-31T00:29:52.303Z,2.97
2018-08-31T00:33:46.543Z,2.30
2018-08-31T00:38:51.782Z,2.07
2018-08-31T00:41:37.064Z,2.70
2018-08-31T00:50:48.922Z,2.93
2018-08-31T00:53:38.067Z,2.60
2018-08-31T00:56:23.114Z,4.10
2018-08-31T00:59:02.785Z,3.00
2018-08-31T01:02:05.046Z,3.00
2018-08-31T01:07:43.933Z,2.77
2018-08-31T01:13:29.886Z,3.20
2018-08-31T01:16:08.013Z,3.53
2018-08-31T01:18:41.902Z,2.83
2018-08-31T01:21:40.919Z,3.77
2018-08-31T01:24:35.686Z,3.20
2018-08-31T01:27:15.503Z,3.20
2018-08-31T01:41:28.568Z,4.60
2018-08-31T01:51:22.575Z,3.30
2018-08-31T01:54:06.206Z,3.50
2018-08-31T01:59:44.668Z,3.30
2018-08-31T02:05:29.742Z,3.63
2018-08-31T02:08:19.725Z,2.90
2018-08-31T02:11:08.119Z,3.73
2018-08-31T02:14:04.405Z,4.07
2018-08-31T02:19:51.125Z,3.07
2018-08-31T02:22:44.415Z,3.27
2018-08-31T02:25:25.348Z,3.27
2018-08-31T02:28:03.136Z,3.13
2018-08-31T02:30:48.276Z,3.50
2018-08-31T02:36:27.186Z,3.20
2018-08-31T02:40:40.625Z,4.13
2018-08-31T02:43:46.992Z,4.33
2018-08-31T02:49:24.786Z,4.20
2018-08-31T02:58:07.563Z,4.37
2018-08-31T03:00:56.960Z,4.30
2018-08-31T03:03:53.056Z,4.23
2018-08-31T03:06:40.647Z,4.58
2018-08-31T03:09:42.391Z,4.33
2018-08-31T03:13:26.926Z,4.93
2018-08-31T03:16:10.946Z,4.43
2018-08-31T03:18:56.224Z,3.60
2018-08-31T03:21:37.638Z,4.60
2018-08-31T03:24:20.229Z,4.50
2018-08-31T03:27:11.498Z,3.80
2018-08-31T03:30:04.345Z,3.73
2018-08-31T03:32:51.765Z,4.90
2018-08-31T03:38:21.909Z,3.87
2018-08-31T03:40:54.764Z,3.50
2018-08-31T03:43:47.635Z,3.60
2018-08-31T03:46:37.601Z,2.70
2018-08-31T03:49:43.629Z,3.03
2018-08-31T03:58:14.101Z,3.57
2018-08-31T04:00:51.835Z,3.80
2018-08-31T04:03:39.562Z,4.00
2018-08-31T04:06:24.580Z,3.60
2018-08-31T04:09:15.131Z,3.20
2018-08-31T04:12:04.185Z,4.03
2018-08-31T04:14:39.788Z,4.33
2018-08-31T04:22:50.132Z,4.87
2018-08-31T04:25:44.497Z,3.90
2018-08-31T04:28:33.447Z,3.27
2018-08-31T04:31:15.392Z,2.93
2018-08-31T04:34:05.166Z,4.27
2018-08-31T04:43:19.481Z,3.80
2018-08-31T04:46:02.651Z,3.77
2018-08-31T04:48:48.704Z,4.53
2018-08-31T04:51:41.657Z,3.80
2018-08-31T04:54:19.878Z,4.23
2018-08-31T04:57:04.910Z,4.97
2018-08-31T05:00:04.854Z,3.80
2018-08-31T05:03:09.041Z,4.87
2018-08-31T05:05:55.264Z,4.07
2018-08-31T05:08:51.359Z,4.80
2018-08-31T05:11:36.491Z,4.03
2018-08-31T05:14:30.715Z,4.27
2018-08-31T05:17:17.903Z,4.87
2018-08-31T05:20:19.801Z,3.93
2018-08-31T05:27:24.179Z,4.70
2018-08-31T05:30:08.492Z,4.13
